sensor_id;sensor_type;location;lat;lon;timestamp;P1;durP1;ratioP1;P2;durP2;ratioP2
63320;SDS011;49449;48.800;9.534;2022-09-09T00:01:43;1.58;;;1.30;;
63320;SDS011;49449;48.800;9.534;2022-09-09T00:06:54;1.45;;;1.13;;
63320;SDS011;49449;48.800;9.534;2022-09-09T00:09:28;2.38;;;1.73;;
63320;SDS011;49449;48.800;9.534;2022-09-09T00:11:59;2.00;;;1.13;;
63320;SDS011;49449;48.800;9.534;2022-09-09T00:14:35;2.47;;;1.60;;
63320;SDS011;49449;48.800;9.534;2022-09-09T00:17:09;3.15;;;1.40;;
63320;SDS011;49449;48.800;9.534;2022-09-09T00:19:48;2.88;;;1.40;;
63320;SDS011;49449;48.800;9.534;2022-09-09T00:22:23;4.30;;;1.58;;
63320;SDS011;49449;48.800;9.534;2022-09-09T00:24:55;1.45;;;1.25;;
63320;SDS011;49449;48.800;9.534;2022-09-09T00:27:29;2.55;;;1.27;;
63320;SDS011;49449;48.800;9.534;2022-09-09T00:30:13;2.05;;;1.70;;
63320;SDS011;49449;48.800;9.534;2022-09-09T00:32:45;1.98;;;1.60;;
63320;SDS011;49449;48.800;9.534;2022-09-09T00:35:18;2.20;;;1.35;;
63320;SDS011;49449;48.800;9.534;2022-09-09T00:37:52;2.03;;;1.38;;
63320;SDS011;49449;48.800;9.534;2022-09-09T00:40:25;2.17;;;1.25;;
63320;SDS011;49449;48.800;9.534;2022-09-09T00:43:05;1.75;;;1.30;;
63320;SDS011;49449;48.800;9.534;2022-09-09T00:45:53;1.45;;;1.30;;
63320;SDS011;49449;48.800;9.534;2022-09-09T00:48:52;3.42;;;1.42;;
63320;SDS011;49449;48.800;9.534;2022-09-09T00:51:28;2.15;;;1.30;;
63320;SDS011;49449;48.800;9.534;2022-09-09T00:54:12;1.30;;;1.20;;
63320;SDS011;49449;48.800;9.534;2022-09-09T00:56:50;1.90;;;1.75;;
63320;SDS011;49449;48.800;9.534;2022-09-09T00:59:28;3.00;;;1.48;;
63320;SDS011;49449;48.800;9.534;2022-09-09T01:02:04;1.50;;;1.40;;
63320;SDS011;49449;48.800;9.534;2022-09-09T01:04:40;2.95;;;1.20;;
63320;SDS011;49449;48.800;9.534;2022-09-09T01:07:12;2.97;;;1.85;;
63320;SDS011;49449;48.800;9.534;2022-09-09T01:09:50;2.33;;;1.83;;
63320;SDS011;49449;48.800;9.534;2022-09-09T01:12:25;1.20;;;1.10;;
63320;SDS011;49449;48.800;9.534;2022-09-09T01:15:01;1.90;;;1.40;;
63320;SDS011;49449;48.800;9.534;2022-09-09T01:17:37;1.40;;;1.30;;
63320;SDS011;49449;48.800;9.534;2022-09-09T01:20:14;2.70;;;1.45;;
63320;SDS011;49449;48.800;9.534;2022-09-09T01:22:47;1.35;;;1.10;;
63320;SDS011;49449;48.800;9.534;2022-09-09T01:25:30;1.73;;;1.20;;
63320;SDS011;49449;48.800;9.534;2022-09-09T01:28:33;1.40;;;1.30;;
63320;SDS011;49449;48.800;9.534;2022-09-09T01:31:03;2.58;;;1.40;;
63320;SDS011;49449;48.800;9.534;2022-09-09T01:33:33;2.63;;;1.30;;
63320;SDS011;49449;48.800;9.534;2022-09-09T01:36:02;2.15;;;1.48;;
63320;SDS011;49449;48.800;9.534;2022-09-09T01:38:34;2.17;;;1.30;;
63320;SDS011;49449;48.800;9.534;2022-09-09T01:41:03;1.40;;;1.30;;
63320;SDS011;49449;48.800;9.534;2022-09-09T01:43:33;2.72;;;1.15;;
63320;SDS011;49449;48.800;9.534;2022-09-09T01:46:01;2.30;;;1.33;;
63320;SDS011;49449;48.800;9.534;2022-09-09T01:48:29;3.45;;;1.52;;
63320;SDS011;49449;48.800;9.534;2022-09-09T01:50:57;1.30;;;1.20;;
63320;SDS011;49449;48.800;9.534;2022-09-09T01:53:25;2.13;;;1.40;;
63320;SDS011;49449;48.800;9.534;2022-09-09T01:55:55;4.30;;;1.73;;
63320;SDS011;49449;48.800;9.534;2022-09-09T01:58:37;3.22;;;1.38;;
63320;SDS011;49449;48.800;9.534;2022-09-09T02:01:15;1.45;;;1.35;;
63320;SDS011;49449;48.800;9.534;2022-09-09T02:03:52;2.58;;;1.30;;
63320;SDS011;49449;48.800;9.534;2022-09-09T02:06:25;2.97;;;1.50;;
63320;SDS011;49449;48.800;9.534;2022-09-09T02:08:58;2.50;;;1.40;;
63320;SDS011;49449;48.800;9.534;2022-09-09T02:11:29;2.97;;;1.42;;
63320;SDS011;49449;48.800;9.534;2022-09-09T02:14:00;2.33;;;1.23;;
63320;SDS011;49449;48.800;9.534;2022-09-09T02:16:31;3.03;;;1.42;;
63320;SDS011;49449;48.800;9.534;2022-09-09T02:19:02;2.30;;;1.48;;
63320;SDS011;49449;48.800;9.534;2022-09-09T02:21:39;1.83;;;1.40;;
63320;SDS011;49449;48.800;9.534;2022-09-09T02:24:09;2.67;;;1.60;;
63320;SDS011;49449;48.800;9.534;2022-09-09T02:26:40;1.67;;;1.27;;
63320;SDS011;49449;48.800;9.534;2022-09-09T02:29:12;2.67;;;1.10;;
63320;SDS011;49449;48.800;9.534;2022-09-09T02:31:44;3.15;;;2.05;;
63320;SDS011;49449;48.800;9.534;2022-09-09T02:34:14;1.10;;;1.00;;
63320;SDS011;49449;48.800;9.534;2022-09-09T02:36:46;1.92;;;1.50;;
63320;SDS011;49449;48.800;9.534;2022-09-09T02:39:15;1.77;;;1.33;;
63320;SDS011;49449;48.800;9.534;2022-09-09T02:41:43;1.08;;;0.98;;
63320;SDS011;49449;48.800;9.534;2022-09-09T02:44:12;1.52;;;1.35;;
63320;SDS011;49449;48.800;9.534;2022-09-09T02:46:46;2.40;;;1.45;;
63320;SDS011;49449;48.800;9.534;2022-09-09T02:49:28;1.67;;;1.20;;
63320;SDS011;49449;48.800;9.534;2022-09-09T02:52:04;3.97;;;1.48;;
63320;SDS011;49449;48.800;9.534;2022-09-09T02:54:34;2.13;;;1.60;;
63320;SDS011;49449;48.800;9.534;2022-09-09T02:57:06;2.13;;;1.60;;
63320;SDS011;49449;48.800;9.534;2022-09-09T02:59:39;2.05;;;1.38;;
63320;SDS011;49449;48.800;9.534;2022-09-09T03:02:07;3.60;;;1.33;;
63320;SDS011;49449;48.800;9.534;2022-09-09T03:04:37;3.83;;;1.33;;
63320;SDS011;49449;48.800;9.534;2022-09-09T03:07:05;1.98;;;1.77;;
63320;SDS011;49449;48.800;9.534;2022-09-09T03:09:33;2.17;;;1.73;;
63320;SDS011;49449;48.800;9.534;2022-09-09T03:12:01;4.63;;;2.15;;
63320;SDS011;49449;48.800;9.534;2022-09-09T03:14:30;1.95;;;1.50;;
63320;SDS011;49449;48.800;9.534;2022-09-09T03:16:59;2.28;;;1.52;;
63320;SDS011;49449;48.800;9.534;2022-09-09T03:19:28;3.17;;;1.20;;
63320;SDS011;49449;48.800;9.534;2022-09-09T03:21:56;3.05;;;1.38;;
63320;SDS011;49449;48.800;9.534;2022-09-09T03:24:24;2.25;;;1.13;;
63320;SDS011;49449;48.800;9.534;2022-09-09T03:26:52;1.35;;;1.27;;
63320;SDS011;49449;48.800;9.534;2022-09-09T03:29:21;1.48;;;1.20;;
63320;SDS011;49449;48.800;9.534;2022-09-09T03:31:49;1.38;;;1.25;;
63320;SDS011;49449;48.800;9.534;2022-09-09T03:34:18;2.15;;;1.40;;
63320;SDS011;49449;48.800;9.534;2022-09-09T03:36:46;1.75;;;1.20;;
63320;SDS011;49449;48.800;9.534;2022-09-09T03:39:14;1.30;;;1.20;;
63320;SDS011;49449;48.800;9.534;2022-09-09T03:41:42;1.38;;;1.20;;
63320;SDS011;49449;48.800;9.534;2022-09-09T03:44:12;2.88;;;1.45;;
63320;SDS011;49449;48.800;9.534;2022-09-09T03:46:40;1.42;;;1.33;;
63320;SDS011;49449;48.800;9.534;2022-09-09T03:49:07;2.63;;;1.33;;
63320;SDS011;49449;48.800;9.534;2022-09-09T03:51:37;2.75;;;1.40;;
63320;SDS011;49449;48.800;9.534;2022-09-09T03:54:06;1.85;;;1.50;;
63320;SDS011;49449;48.800;9.534;2022-09-09T03:56:36;1.30;;;1.20;;
63320;SDS011;49449;48.800;9.534;2022-09-09T03:59:04;1.50;;;1.40;;
63320;SDS011;49449;48.800;9.534;2022-09-09T04:01:31;2.05;;;1.40;;
63320;SDS011;49449;48.800;9.534;2022-09-09T04:04:00;3.08;;;1.20;;
63320;SDS011;49449;48.800;9.534;2022-09-09T04:06:28;2.22;;;1.40;;
63320;SDS011;49449;48.800;9.534;2022-09-09T04:08:57;2.15;;;1.20;;
63320;SDS011;49449;48.800;9.534;2022-09-09T04:11:25;2.63;;;1.20;;
63320;SDS011;49449;48.800;9.534;2022-09-09T04:13:53;2.22;;;1.10;;
63320;SDS011;49449;48.800;9.534;2022-09-09T04:16:21;1.85;;;1.58;;
63320;SDS011;49449;48.800;9.534;2022-09-09T04:18:48;1.58;;;1.40;;
63320;SDS011;49449;48.800;9.534;2022-09-09T04:21:16;3.78;;;1.75;;
63320;SDS011;49449;48.800;9.534;2022-09-09T04:23:44;2.88;;;1.42;;
63320;SDS011;49449;48.800;9.534;2022-09-09T04:26:13;2.22;;;1.60;;
63320;SDS011;49449;48.800;9.534;2022-09-09T04:28:41;2.67;;;1.40;;
63320;SDS011;49449;48.800;9.534;2022-09-09T04:31:10;2.03;;;1.50;;
63320;SDS011;49449;48.800;9.534;2022-09-09T04:33:41;2.30;;;1.85;;
63320;SDS011;49449;48.800;9.534;2022-09-09T04:36:09;1.73;;;1.42;;
63320;SDS011;49449;48.800;9.534;2022-09-09T04:38:37;1.45;;;1.30;;
63320;SDS011;49449;48.800;9.534;2022-09-09T04:41:05;2.65;;;1.45;;
63320;SDS011;49449;48.800;9.534;2022-09-09T04:43:34;1.75;;;1.50;;
63320;SDS011;49449;48.800;9.534;2022-09-09T04:46:03;1.90;;;1.35;;
63320;SDS011;49449;48.800;9.534;2022-09-09T04:48:31;1.50;;;1.25;;
63320;SDS011;49449;48.800;9.534;2022-09-09T04:51:00;2.60;;;1.63;;
63320;SDS011;49449;48.800;9.534;2022-09-09T04:53:30;1.77;;;1.67;;
63320;SDS011;49449;48.800;9.534;2022-09-09T04:56:01;2.13;;;1.50;;
63320;SDS011;49449;48.800;9.534;2022-09-09T04:58:30;2.00;;;1.48;;
63320;SDS011;49449;48.800;9.534;2022-09-09T05:01:06;3.63;;;1.63;;
63320;SDS011;49449;48.800;9.534;2022-09-09T05:03:36;1.40;;;1.30;;
63320;SDS011;49449;48.800;9.534;2022-09-09T05:06:05;3.13;;;2.13;;
63320;SDS011;49449;48.800;9.534;2022-09-09T05:08:34;2.30;;;1.55;;
63320;SDS011;49449;48.800;9.534;2022-09-09T05:11:03;2.55;;;1.60;;
63320;SDS011;49449;48.800;9.534;2022-09-09T05:13:30;2.47;;;1.52;;
63320;SDS011;49449;48.800;9.534;2022-09-09T05:15:58;3.35;;;1.40;;
63320;SDS011;49449;48.800;9.534;2022-09-09T05:18:27;1.90;;;1.80;;
63320;SDS011;49449;48.800;9.534;2022-09-09T05:20:59;1.73;;;1.42;;
63320;SDS011;49449;48.800;9.534;2022-09-09T05:23:27;2.72;;;1.60;;
63320;SDS011;49449;48.800;9.534;2022-09-09T05:25:55;1.67;;;1.58;;
63320;SDS011;49449;48.800;9.534;2022-09-09T05:28:23;1.30;;;1.20;;
63320;SDS011;49449;48.800;9.534;2022-09-09T05:30:56;2.58;;;1.20;;
63320;SDS011;49449;48.800;9.534;2022-09-09T05:33:24;3.38;;;1.42;;
63320;SDS011;49449;48.800;9.534;2022-09-09T05:35:58;3.53;;;1.60;;
63320;SDS011;49449;48.800;9.534;2022-09-09T05:38:26;2.25;;;1.30;;
63320;SDS011;49449;48.800;9.534;2022-09-09T05:40:55;2.67;;;1.20;;
63320;SDS011;49449;48.800;9.534;2022-09-09T05:43:23;1.50;;;1.40;;
63320;SDS011;49449;48.800;9.534;2022-09-09T05:46:01;3.75;;;1.40;;
63320;SDS011;49449;48.800;9.534;2022-09-09T05:48:30;1.60;;;1.27;;
63320;SDS011;49449;48.800;9.534;2022-09-09T05:51:01;1.33;;;1.20;;
63320;SDS011;49449;48.800;9.534;2022-09-09T05:53:30;2.03;;;1.30;;
63320;SDS011;49449;48.800;9.534;2022-09-09T05:56:00;2.13;;;1.13;;
63320;SDS011;49449;48.800;9.534;2022-09-09T05:58:30;2.30;;;1.23;;
63320;SDS011;49449;48.800;9.534;2022-09-09T06:01:02;4.30;;;1.40;;
63320;SDS011;49449;48.800;9.534;2022-09-09T06:03:33;2.20;;;1.27;;
63320;SDS011;49449;48.800;9.534;2022-09-09T06:06:03;2.28;;;1.38;;
63320;SDS011;49449;48.800;9.534;2022-09-09T06:08:32;1.95;;;1.33;;
63320;SDS011;49449;48.800;9.534;2022-09-09T06:11:01;2.25;;;1.23;;
63320;SDS011;49449;48.800;9.534;2022-09-09T06:13:30;1.50;;;1.15;;
63320;SDS011;49449;48.800;9.534;2022-09-09T06:15:58;2.92;;;1.55;;
63320;SDS011;49449;48.800;9.534;2022-09-09T06:18:26;2.30;;;1.50;;
63320;SDS011;49449;48.800;9.534;2022-09-09T06:20:56;3.15;;;1.85;;
63320;SDS011;49449;48.800;9.534;2022-09-09T06:23:26;1.67;;;1.50;;
63320;SDS011;49449;48.800;9.534;2022-09-09T06:26:00;2.60;;;1.60;;
63320;SDS011;49449;48.800;9.534;2022-09-09T06:28:29;2.00;;;1.40;;
63320;SDS011;49449;48.800;9.534;2022-09-09T06:30:58;3.63;;;1.70;;
63320;SDS011;49449;48.800;9.534;2022-09-09T06:33:26;2.75;;;1.80;;
63320;SDS011;49449;48.800;9.534;2022-09-09T06:36:01;3.95;;;1.60;;
63320;SDS011;49449;48.800;9.534;2022-09-09T06:38:32;3.42;;;1.70;;
63320;SDS011;49449;48.800;9.534;2022-09-09T06:41:00;2.20;;;1.60;;
63320;SDS011;49449;48.800;9.534;2022-09-09T06:43:28;2.10;;;1.80;;
63320;SDS011;49449;48.800;9.534;2022-09-09T06:45:56;5.18;;;1.70;;
63320;SDS011;49449;48.800;9.534;2022-09-09T06:48:26;1.90;;;1.63;;
63320;SDS011;49449;48.800;9.534;2022-09-09T06:51:01;3.70;;;1.27;;
63320;SDS011;49449;48.800;9.534;2022-09-09T06:53:31;2.38;;;1.40;;
63320;SDS011;49449;48.800;9.534;2022-09-09T06:56:01;3.47;;;1.98;;
63320;SDS011;49449;48.800;9.534;2022-09-09T06:58:32;1.83;;;1.30;;
63320;SDS011;49449;48.800;9.534;2022-09-09T07:01:03;3.22;;;1.88;;
63320;SDS011;49449;48.800;9.534;2022-09-09T07:03:32;3.17;;;1.60;;
63320;SDS011;49449;48.800;9.534;2022-09-09T07:06:01;2.20;;;1.85;;
63320;SDS011;49449;48.800;9.534;2022-09-09T07:08:30;4.38;;;1.45;;
63320;SDS011;49449;48.800;9.534;2022-09-09T07:11:02;2.35;;;1.48;;
63320;SDS011;49449;48.800;9.534;2022-09-09T07:13:34;2.85;;;1.40;;
63320;SDS011;49449;48.800;9.534;2022-09-09T07:16:03;4.72;;;1.48;;
63320;SDS011;49449;48.800;9.534;2022-09-09T07:18:32;2.58;;;1.70;;
63320;SDS011;49449;48.800;9.534;2022-09-09T07:21:01;3.50;;;1.73;;
63320;SDS011;49449;48.800;9.534;2022-09-09T07:23:33;3.88;;;1.85;;
63320;SDS011;49449;48.800;9.534;2022-09-09T07:26:06;3.03;;;1.77;;
63320;SDS011;49449;48.800;9.534;2022-09-09T07:28:36;3.28;;;1.77;;
63320;SDS011;49449;48.800;9.534;2022-09-09T07:31:04;4.45;;;2.13;;
63320;SDS011;49449;48.800;9.534;2022-09-09T07:33:33;1.55;;;1.42;;
63320;SDS011;49449;48.800;9.534;2022-09-09T07:36:03;1.52;;;1.20;;
63320;SDS011;49449;48.800;9.534;2022-09-09T07:38:37;3.28;;;1.50;;
63320;SDS011;49449;48.800;9.534;2022-09-09T07:41:07;5.15;;;1.50;;
63320;SDS011;49449;48.800;9.534;2022-09-09T07:43:38;1.80;;;1.38;;
63320;SDS011;49449;48.800;9.534;2022-09-09T07:46:08;2.15;;;1.90;;
63320;SDS011;49449;48.800;9.534;2022-09-09T07:48:38;2.38;;;1.50;;
63320;SDS011;49449;48.800;9.534;2022-09-09T07:51:10;2.13;;;1.10;;
63320;SDS011;49449;48.800;9.534;2022-09-09T07:53:43;2.15;;;1.40;;
63320;SDS011;49449;48.800;9.534;2022-09-09T07:56:13;3.97;;;1.60;;
63320;SDS011;49449;48.800;9.534;2022-09-09T07:58:44;1.50;;;1.40;;
63320;SDS011;49449;48.800;9.534;2022-09-09T08:01:17;2.85;;;1.48;;
63320;SDS011;49449;48.800;9.534;2022-09-09T08:03:46;2.42;;;1.75;;
63320;SDS011;49449;48.800;9.534;2022-09-09T08:06:22;2.55;;;1.48;;
63320;SDS011;49449;48.800;9.534;2022-09-09T08:08:51;2.72;;;1.45;;
63320;SDS011;49449;48.800;9.534;2022-09-09T08:11:20;1.63;;;1.50;;
63320;SDS011;49449;48.800;9.534;2022-09-09T08:13:51;2.30;;;1.30;;
63320;SDS011;49449;48.800;9.534;2022-09-09T08:16:21;2.10;;;1.65;;
63320;SDS011;49449;48.800;9.534;2022-09-09T08:18:51;2.88;;;1.58;;
63320;SDS011;49449;48.800;9.534;2022-09-09T08:21:20;4.72;;;1.30;;
63320;SDS011;49449;48.800;9.534;2022-09-09T08:23:50;2.05;;;1.38;;
63320;SDS011;49449;48.800;9.534;2022-09-09T08:26:24;2.08;;;1.33;;
63320;SDS011;49449;48.800;9.534;2022-09-09T08:28:54;1.40;;;1.30;;
63320;SDS011;49449;48.800;9.534;2022-09-09T08:31:24;3.35;;;1.60;;
63320;SDS011;49449;48.800;9.534;2022-09-09T08:33:54;3.25;;;1.40;;
63320;SDS011;49449;48.800;9.534;2022-09-09T08:36:23;2.67;;;1.17;;
63320;SDS011;49449;48.800;9.534;2022-09-09T08:38:52;2.83;;;1.05;;
63320;SDS011;49449;48.800;9.534;2022-09-09T08:41:33;3.08;;;0.90;;
63320;SDS011;49449;48.800;9.534;2022-09-09T08:44:08;1.77;;;0.90;;
63320;SDS011;49449;48.800;9.534;2022-09-09T08:46:44;2.55;;;1.40;;
63320;SDS011;49449;48.800;9.534;2022-09-09T08:49:25;2.70;;;1.40;;
63320;SDS011;49449;48.800;9.534;2022-09-09T08:52:07;3.85;;;1.50;;
63320;SDS011;49449;48.800;9.534;2022-09-09T08:54:39;1.42;;;1.30;;
63320;SDS011;49449;48.800;9.534;2022-09-09T08:57:18;2.53;;;1.42;;
63320;SDS011;49449;48.800;9.534;2022-09-09T08:59:53;4.70;;;1.23;;
63320;SDS011;49449;48.800;9.534;2022-09-09T09:02:24;2.90;;;1.10;;
63320;SDS011;49449;48.800;9.534;2022-09-09T09:05:02;1.67;;;1.10;;
63320;SDS011;49449;48.800;9.534;2022-09-09T09:07:44;1.60;;;1.38;;
63320;SDS011;49449;48.800;9.534;2022-09-09T09:10:24;3.08;;;1.02;;
63320;SDS011;49449;48.800;9.534;2022-09-09T09:13:09;3.10;;;1.65;;
63320;SDS011;49449;48.800;9.534;2022-09-09T09:15:44;2.55;;;1.20;;
63320;SDS011;49449;48.800;9.534;2022-09-09T09:18:20;4.32;;;1.40;;
63320;SDS011;49449;48.800;9.534;2022-09-09T09:23:26;2.55;;;1.30;;
63320;SDS011;49449;48.800;9.534;2022-09-09T09:26:06;2.47;;;1.10;;
63320;SDS011;49449;48.800;9.534;2022-09-09T09:28:38;2.67;;;1.35;;
63320;SDS011;49449;48.800;9.534;2022-09-09T09:31:08;2.65;;;1.40;;
63320;SDS011;49449;48.800;9.534;2022-09-09T09:33:40;2.55;;;1.42;;
63320;SDS011;49449;48.800;9.534;2022-09-09T09:36:14;1.33;;;1.05;;
63320;SDS011;49449;48.800;9.534;2022-09-09T09:38:53;2.25;;;1.10;;
63320;SDS011;49449;48.800;9.534;2022-09-09T09:41:42;2.63;;;1.50;;
63320;SDS011;49449;48.800;9.534;2022-09-09T09:44:22;1.63;;;1.33;;
63320;SDS011;49449;48.800;9.534;2022-09-09T09:46:52;1.95;;;1.25;;
63320;SDS011;49449;48.800;9.534;2022-09-09T09:49:21;2.72;;;1.30;;
63320;SDS011;49449;48.800;9.534;2022-09-09T09:51:49;1.33;;;1.10;;
63320;SDS011;49449;48.800;9.534;2022-09-09T09:54:20;2.72;;;1.33;;
63320;SDS011;49449;48.800;9.534;2022-09-09T09:56:55;2.17;;;1.20;;
63320;SDS011;49449;48.800;9.534;2022-09-09T09:59:34;3.10;;;1.08;;
63320;SDS011;49449;48.800;9.534;2022-09-09T10:02:14;3.03;;;0.88;;
63320;SDS011;49449;48.800;9.534;2022-09-09T10:04:45;5.32;;;1.38;;
63320;SDS011;49449;48.800;9.534;2022-09-09T10:07:17;3.25;;;1.20;;
63320;SDS011;49449;48.800;9.534;2022-09-09T10:09:46;1.95;;;1.20;;
63320;SDS011;49449;48.800;9.534;2022-09-09T10:12:21;4.13;;;1.50;;
63320;SDS011;49449;48.800;9.534;2022-09-09T10:15:05;2.90;;;1.23;;
63320;SDS011;49449;48.800;9.534;2022-09-09T10:17:45;2.15;;;1.30;;
63320;SDS011;49449;48.800;9.534;2022-09-09T10:20:28;2.03;;;1.50;;
63320;SDS011;49449;48.800;9.534;2022-09-09T10:23:06;0.95;;;0.82;;
63320;SDS011;49449;48.800;9.534;2022-09-09T10:25:54;4.13;;;2.00;;
63320;SDS011;49449;48.800;9.534;2022-09-09T10:31:20;1.52;;;1.13;;
63320;SDS011;49449;48.800;9.534;2022-09-09T10:33:56;2.38;;;1.33;;
63320;SDS011;49449;48.800;9.534;2022-09-09T10:36:30;2.30;;;1.35;;
63320;SDS011;49449;48.800;9.534;2022-09-09T10:38:58;2.03;;;0.95;;
63320;SDS011;49449;48.800;9.534;2022-09-09T10:44:26;3.05;;;1.00;;
63320;SDS011;49449;48.800;9.534;2022-09-09T10:47:13;1.02;;;0.90;;
63320;SDS011;49449;48.800;9.534;2022-09-09T10:50:06;1.55;;;1.08;;
63320;SDS011;49449;48.800;9.534;2022-09-09T10:52:43;2.47;;;1.30;;
63320;SDS011;49449;48.800;9.534;2022-09-09T10:55:20;2.72;;;1.08;;
63320;SDS011;49449;48.800;9.534;2022-09-09T10:57:56;4.10;;;1.50;;
63320;SDS011;49449;48.800;9.534;2022-09-09T11:00:29;2.45;;;1.23;;
63320;SDS011;49449;48.800;9.534;2022-09-09T11:03:04;2.95;;;1.10;;
63320;SDS011;49449;48.800;9.534;2022-09-09T11:05:35;2.90;;;1.17;;
63320;SDS011;49449;48.800;9.534;2022-09-09T11:08:09;1.83;;;1.25;;
63320;SDS011;49449;48.800;9.534;2022-09-09T11:10:43;2.88;;;1.35;;
63320;SDS011;49449;48.800;9.534;2022-09-09T11:13:16;0.93;;;0.75;;
63320;SDS011;49449;48.800;9.534;2022-09-09T11:15:49;1.45;;;1.20;;
63320;SDS011;49449;48.800;9.534;2022-09-09T11:18:22;1.45;;;0.80;;
63320;SDS011;49449;48.800;9.534;2022-09-09T11:20:51;1.48;;;1.35;;
63320;SDS011;49449;48.800;9.534;2022-09-09T11:23:27;2.38;;;1.10;;
63320;SDS011;49449;48.800;9.534;2022-09-09T11:26:04;3.70;;;1.00;;
63320;SDS011;49449;48.800;9.534;2022-09-09T11:28:38;2.90;;;1.38;;
63320;SDS011;49449;48.800;9.534;2022-09-09T11:31:21;1.80;;;0.90;;
63320;SDS011;49449;48.800;9.534;2022-09-09T11:34:07;1.00;;;0.90;;
63320;SDS011;49449;48.800;9.534;2022-09-09T11:42:49;2.55;;;1.10;;
63320;SDS011;49449;48.800;9.534;2022-09-09T11:45:31;1.63;;;1.02;;
63320;SDS011;49449;48.800;9.534;2022-09-09T11:48:02;1.70;;;0.90;;
63320;SDS011;49449;48.800;9.534;2022-09-09T11:50:35;2.33;;;1.30;;
63320;SDS011;49449;48.800;9.534;2022-09-09T11:55:59;2.28;;;1.00;;
63320;SDS011;49449;48.800;9.534;2022-09-09T11:58:40;1.63;;;1.05;;
63320;SDS011;49449;48.800;9.534;2022-09-09T12:01:13;7.45;;;1.38;;
63320;SDS011;49449;48.800;9.534;2022-09-09T12:04:13;5.60;;;1.50;;
63320;SDS011;49449;48.800;9.534;2022-09-09T12:06:50;4.65;;;1.33;;
63320;SDS011;49449;48.800;9.534;2022-09-09T12:09:22;2.95;;;1.60;;
63320;SDS011;49449;48.800;9.534;2022-09-09T12:12:06;2.22;;;1.10;;
63320;SDS011;49449;48.800;9.534;2022-09-09T12:14:54;2.17;;;0.68;;
63320;SDS011;49449;48.800;9.534;2022-09-09T12:17:26;2.67;;;0.98;;
63320;SDS011;49449;48.800;9.534;2022-09-09T12:20:10;1.33;;;0.63;;
63320;SDS011;49449;48.800;9.534;2022-09-09T12:22:46;1.10;;;1.00;;
63320;SDS011;49449;48.800;9.534;2022-09-09T12:25:33;2.58;;;0.85;;
63320;SDS011;49449;48.800;9.534;2022-09-09T12:28:11;2.42;;;1.17;;
63320;SDS011;49449;48.800;9.534;2022-09-09T12:30:47;1.50;;;1.00;;
63320;SDS011;49449;48.800;9.534;2022-09-09T12:33:23;2.40;;;1.33;;
63320;SDS011;49449;48.800;9.534;2022-09-09T12:35:51;1.98;;;0.70;;
63320;SDS011;49449;48.800;9.534;2022-09-09T12:38:26;2.95;;;1.00;;
63320;SDS011;49449;48.800;9.534;2022-09-09T12:40:59;2.40;;;0.90;;
63320;SDS011;49449;48.800;9.534;2022-09-09T12:43:27;1.95;;;1.38;;
63320;SDS011;49449;48.800;9.534;2022-09-09T12:45:56;2.15;;;0.65;;
63320;SDS011;49449;48.800;9.534;2022-09-09T12:48:32;1.90;;;1.15;;
63320;SDS011;49449;48.800;9.534;2022-09-09T12:51:03;1.23;;;1.00;;
63320;SDS011;49449;48.800;9.534;2022-09-09T12:53:36;3.38;;;0.77;;
63320;SDS011;49449;48.800;9.534;2022-09-09T12:56:06;3.65;;;0.93;;
63320;SDS011;49449;48.800;9.534;2022-09-09T12:58:35;2.10;;;1.17;;
63320;SDS011;49449;48.800;9.534;2022-09-09T13:01:18;2.30;;;1.10;;
63320;SDS011;49449;48.800;9.534;2022-09-09T13:03:49;1.48;;;1.20;;
63320;SDS011;49449;48.800;9.534;2022-09-09T13:06:19;2.22;;;0.75;;
63320;SDS011;49449;48.800;9.534;2022-09-09T13:08:52;1.13;;;0.70;;
63320;SDS011;49449;48.800;9.534;2022-09-09T13:11:22;2.92;;;1.20;;
63320;SDS011;49449;48.800;9.534;2022-09-09T13:13:55;4.45;;;1.20;;
63320;SDS011;49449;48.800;9.534;2022-09-09T13:16:25;4.28;;;1.27;;
63320;SDS011;49449;48.800;9.534;2022-09-09T13:18:58;1.65;;;0.70;;
63320;SDS011;49449;48.800;9.534;2022-09-09T13:21:31;1.77;;;0.80;;
63320;SDS011;49449;48.800;9.534;2022-09-09T13:24:02;1.02;;;0.90;;
63320;SDS011;49449;48.800;9.534;2022-09-09T13:26:33;1.13;;;0.80;;
63320;SDS011;49449;48.800;9.534;2022-09-09T13:29:09;1.83;;;1.02;;
63320;SDS011;49449;48.800;9.534;2022-09-09T13:31:45;0.88;;;0.70;;
63320;SDS011;49449;48.800;9.534;2022-09-09T13:34:13;1.73;;;0.55;;
63320;SDS011;49449;48.800;9.534;2022-09-09T13:36:54;1.35;;;1.20;;
63320;SDS011;49449;48.800;9.534;2022-09-09T13:39:30;0.95;;;0.95;;
63320;SDS011;49449;48.800;9.534;2022-09-09T13:41:57;2.03;;;1.10;;
63320;SDS011;49449;48.800;9.534;2022-09-09T13:44:26;1.77;;;0.77;;
63320;SDS011;49449;48.800;9.534;2022-09-09T13:47:02;1.30;;;0.60;;
63320;SDS011;49449;48.800;9.534;2022-09-09T13:49:34;1.77;;;1.05;;
63320;SDS011;49449;48.800;9.534;2022-09-09T13:52:04;0.90;;;0.50;;
63320;SDS011;49449;48.800;9.534;2022-09-09T13:54:35;1.70;;;0.73;;
63320;SDS011;49449;48.800;9.534;2022-09-09T13:57:02;1.48;;;0.60;;
63320;SDS011;49449;48.800;9.534;2022-09-09T13:59:30;1.20;;;0.90;;
63320;SDS011;49449;48.800;9.534;2022-09-09T14:02:19;1.02;;;0.70;;
63320;SDS011;49449;48.800;9.534;2022-09-09T14:04:47;1.13;;;1.00;;
63320;SDS011;49449;48.800;9.534;2022-09-09T14:07:17;1.05;;;0.50;;
63320;SDS011;49449;48.800;9.534;2022-09-09T14:09:47;0.77;;;0.77;;
63320;SDS011;49449;48.800;9.534;2022-09-09T14:12:16;2.47;;;0.95;;
63320;SDS011;49449;48.800;9.534;2022-09-09T14:14:44;1.25;;;0.60;;
63320;SDS011;49449;48.800;9.534;2022-09-09T14:17:12;1.77;;;0.63;;
63320;SDS011;49449;48.800;9.534;2022-09-09T14:19:40;2.10;;;0.65;;
63320;SDS011;49449;48.800;9.534;2022-09-09T14:22:08;1.48;;;0.90;;
63320;SDS011;49449;48.800;9.534;2022-09-09T14:24:37;1.30;;;0.70;;
63320;SDS011;49449;48.800;9.534;2022-09-09T14:27:06;2.95;;;0.98;;
63320;SDS011;49449;48.800;9.534;2022-09-09T14:29:34;1.17;;;0.60;;
63320;SDS011;49449;48.800;9.534;2022-09-09T14:32:02;2.88;;;0.70;;
63320;SDS011;49449;48.800;9.534;2022-09-09T14:34:32;0.30;;;0.30;;
63320;SDS011;49449;48.800;9.534;2022-09-09T14:37:01;1.50;;;0.60;;
63320;SDS011;49449;48.800;9.534;2022-09-09T14:39:29;1.15;;;1.05;;
63320;SDS011;49449;48.800;9.534;2022-09-09T14:41:57;1.75;;;0.70;;
63320;SDS011;49449;48.800;9.534;2022-09-09T14:44:27;1.92;;;0.80;;
63320;SDS011;49449;48.800;9.534;2022-09-09T14:46:55;1.35;;;0.47;;
63320;SDS011;49449;48.800;9.534;2022-09-09T14:49:23;2.25;;;0.60;;
63320;SDS011;49449;48.800;9.534;2022-09-09T14:51:51;1.60;;;1.10;;
63320;SDS011;49449;48.800;9.534;2022-09-09T14:54:19;2.28;;;1.02;;
63320;SDS011;49449;48.800;9.534;2022-09-09T14:56:48;1.85;;;0.88;;
63320;SDS011;49449;48.800;9.534;2022-09-09T14:59:16;1.35;;;0.60;;
63320;SDS011;49449;48.800;9.534;2022-09-09T15:01:46;1.27;;;0.60;;
63320;SDS011;49449;48.800;9.534;2022-09-09T15:04:15;1.40;;;0.93;;
63320;SDS011;49449;48.800;9.534;2022-09-09T15:06:43;1.17;;;0.70;;
63320;SDS011;49449;48.800;9.534;2022-09-09T15:09:14;0.60;;;0.60;;
63320;SDS011;49449;48.800;9.534;2022-09-09T15:11:42;2.20;;;0.65;;
63320;SDS011;49449;48.800;9.534;2022-09-09T15:14:10;0.57;;;0.43;;
63320;SDS011;49449;48.800;9.534;2022-09-09T15:16:38;2.72;;;0.90;;
63320;SDS011;49449;48.800;9.534;2022-09-09T15:19:08;2.08;;;0.60;;
63320;SDS011;49449;48.800;9.534;2022-09-09T15:21:36;1.77;;;0.80;;
63320;SDS011;49449;48.800;9.534;2022-09-09T15:24:05;1.58;;;0.60;;
63320;SDS011;49449;48.800;9.534;2022-09-09T15:26:34;0.45;;;0.40;;
63320;SDS011;49449;48.800;9.534;2022-09-09T15:29:04;1.58;;;0.82;;
63320;SDS011;49449;48.800;9.534;2022-09-09T15:31:33;1.50;;;0.65;;
63320;SDS011;49449;48.800;9.534;2022-09-09T15:34:01;1.55;;;0.43;;
63320;SDS011;49449;48.800;9.534;2022-09-09T15:36:32;0.63;;;0.40;;
63320;SDS011;49449;48.800;9.534;2022-09-09T15:39:01;0.55;;;0.35;;